Terminal Aerodrome Forecast
Issued by NWS Wilmington, OH

Current Version | Previous Version | Text Only | Print | Product List | Glossary On
Versions: 1 2 3 4 5 6 7 8 9 10 11 12 13 14 15 16
328
FTUS41 KILN 131739
TAFCMH
TAF
KCMH 131739Z 1318/1418 29010KT P6SM BKN035
      TEMPO 1318/1321 SCT035
     FM140200 29005KT P6SM SKC
     FM140900 VRB03KT P6SM BKN200
     FM141400 13007KT P6SM FEW020 BKN150=

USA.gov is the U.S. government's official web portal to all federal, state and local government web resources and services.